CYYZ/YYZ METAR and TAF weather

Enter ICAO airport designator
Station Type Date Time Source
CYYZ METAR 2022/06/27 08:00 UTC NOAA

CYYZ 270800Z 30012KT 15SM FEW250 18/10 A2993 RMK CI1 CI TR SLP135 DENSITY ALT 1100FT


Station Type Date Time Source
CYYZ Decoded METAR 2022/06/27 08:00 UTC NOAA

Toronto Pearson Int'L. Ont., Canada (CYYZ) 43-40N 079-38W 173M
Jun 27, 2022 - 04:00 AM EDT / 2022.06.27 0800 UTC
Wind: from the WNW (300 degrees) at 14 MPH (12 KT):0
Visibility: 15 mile(s):0
Sky conditions: mostly clear
Temperature: 64 F (18 C)
Dew Point: 50 F (10 C)
Relative Humidity: 59%
Pressure (altimeter): 29.93 in. Hg (1013 hPa)
ob: CYYZ 270800Z 30012KT 15SM FEW250 18/10 A2993 RMK CI1 CI TR SLP135 DENSITY ALT 1100FT
cycle: 8

Station Type Date Time Source
CYYZ TAF 2022/06/27 09:42 UTC NOAA

TAF CYYZ 270840Z 2709/2812 30012KT P6SM FEW240
BECMG 2711/2713 30010G20KT
FM271600 29012G22KT P6SM BKN050
FM272300 29012G22KT P6SM FEW040
BECMG 2802/2804 30008KT
RMK NXT FCST BY 271200Z

Example: see airport list